createdAt,value
2019-03-03T00:00:54.104Z,1006.16
2019-03-03T00:01:54.095Z,1006.17
2019-03-03T00:02:54.085Z,1006.19
2019-03-03T00:03:54.077Z,1006.17
2019-03-03T00:04:54.073Z,1006.23
2019-03-03T00:05:54.061Z,1006.18
2019-03-03T00:06:54.049Z,1006.19
2019-03-03T00:07:54.048Z,1006.16
2019-03-03T00:08:54.054Z,1006.10
2019-03-03T00:09:54.028Z,1006.09
2019-03-03T00:10:54.016Z,1006.03
2019-03-03T00:11:54.006Z,1006.01
2019-03-03T00:12:53.999Z,1005.95
2019-03-03T00:13:53.990Z,1005.96
2019-03-03T00:14:53.983Z,1005.96
2019-03-03T00:15:53.973Z,1005.91
2019-03-03T00:16:53.968Z,1005.89
2019-03-03T00:17:53.956Z,1005.89
2019-03-03T00:18:53.949Z,1005.88
2019-03-03T00:19:53.939Z,1005.86
2019-03-03T00:20:53.928Z,1005.82
2019-03-03T00:21:53.925Z,1005.86
2019-03-03T00:22:53.913Z,1005.82
2019-03-03T00:23:53.906Z,1005.80
2019-03-03T00:24:53.896Z,1005.75
2019-03-03T00:25:53.891Z,1005.76
2019-03-03T00:26:53.880Z,1005.79
2019-03-03T00:27:53.869Z,1005.70
2019-03-03T00:28:53.865Z,1005.71
2019-03-03T00:29:53.854Z,1005.66
2019-03-03T00:30:53.849Z,1005.69
2019-03-03T00:31:53.837Z,1005.68
2019-03-03T00:32:53.831Z,1005.71
2019-03-03T00:33:53.821Z,1005.67
2019-03-03T00:34:53.817Z,1005.65
2019-03-03T00:35:53.808Z,1005.62
2019-03-03T00:36:53.795Z,1005.68
2019-03-03T00:37:53.790Z,1005.66
2019-03-03T00:38:53.778Z,1005.68
2019-03-03T00:39:53.772Z,1005.68
2019-03-03T00:40:53.761Z,1005.61
2019-03-03T00:41:53.752Z,1005.63
2019-03-03T00:42:53.745Z,1005.60
2019-03-03T00:43:53.734Z,1005.62
2019-03-03T00:44:53.763Z,1005.60
2019-03-03T00:45:53.724Z,1005.59
2019-03-03T00:46:53.707Z,1005.58
2019-03-03T00:47:53.700Z,1005.63
2019-03-03T00:48:53.691Z,1005.59
2019-03-03T00:49:53.680Z,1005.63
2019-03-03T00:50:53.677Z,1005.66
2019-03-03T00:51:53.667Z,1005.60
2019-03-03T00:52:53.660Z,1005.59
2019-03-03T00:53:53.651Z,1005.56
2019-03-03T00:54:53.641Z,1005.53
2019-03-03T00:55:53.633Z,1005.52
2019-03-03T00:56:53.626Z,1005.50
2019-03-03T00:57:53.617Z,1005.54
2019-03-03T00:58:53.606Z,1005.50
2019-03-03T00:59:53.600Z,1005.52
2019-03-03T01:00:53.592Z,1005.54
2019-03-03T01:01:53.582Z,1005.56
2019-03-03T01:02:53.574Z,1005.56
2019-03-03T01:03:53.565Z,1005.54
2019-03-03T01:04:53.557Z,1005.52
2019-03-03T01:05:53.549Z,1005.53
2019-03-03T01:06:53.542Z,1005.54
2019-03-03T01:07:53.535Z,1005.54
2019-03-03T01:08:53.522Z,1005.56
2019-03-03T01:09:53.516Z,1005.50
2019-03-03T01:10:53.505Z,1005.50
2019-03-03T01:11:53.501Z,1005.53
2019-03-03T01:12:53.491Z,1005.52
2019-03-03T01:13:55.581Z,1005.51
2019-03-03T01:14:53.473Z,1005.53
2019-03-03T01:15:53.466Z,1005.51
2019-03-03T01:16:53.459Z,1005.51
2019-03-03T01:17:53.454Z,1005.51
2019-03-03T01:18:53.439Z,1005.53
2019-03-03T01:19:53.435Z,1005.48
2019-03-03T01:20:53.430Z,1005.46
2019-03-03T01:21:53.418Z,1005.48
2019-03-03T01:22:53.411Z,1005.45
2019-03-03T01:23:53.400Z,1005.45
2019-03-03T01:24:53.390Z,1005.47
2019-03-03T01:25:53.384Z,1005.53
2019-03-03T01:26:53.377Z,1005.48
2019-03-03T01:27:53.365Z,1005.47
2019-03-03T01:28:53.362Z,1005.46
2019-03-03T01:29:53.349Z,1005.47
2019-03-03T01:30:53.340Z,1005.45
2019-03-03T01:31:53.336Z,1005.40
2019-03-03T01:32:53.328Z,1005.47
2019-03-03T01:33:53.321Z,1005.41
2019-03-03T01:34:53.306Z,1005.39
2019-03-03T01:35:53.302Z,1005.39
2019-03-03T01:36:53.293Z,1005.40
2019-03-03T01:37:53.286Z,1005.37
2019-03-03T01:38:53.279Z,1005.37
2019-03-03T01:39:53.267Z,1005.32
2019-03-03T01:40:53.257Z,1005.27
2019-03-03T01:41:53.254Z,1005.26
2019-03-03T01:42:53.243Z,1005.27
2019-03-03T01:43:53.236Z,1005.22
2019-03-03T01:44:53.226Z,1005.20
2019-03-03T01:45:53.220Z,1005.20
2019-03-03T01:46:53.211Z,1005.20
2019-03-03T01:47:53.205Z,1005.19
2019-03-03T01:48:53.196Z,1005.20
2019-03-03T01:49:53.194Z,1005.19
2019-03-03T01:50:53.177Z,1005.18
2019-03-03T01:51:53.170Z,1005.16
2019-03-03T01:52:53.163Z,1005.16
2019-03-03T01:53:53.154Z,1005.15
2019-03-03T01:54:53.146Z,1005.11
2019-03-03T01:55:53.136Z,1005.08
2019-03-03T01:56:53.132Z,1005.04
2019-03-03T01:57:53.121Z,1005.00
2019-03-03T01:58:53.115Z,1004.98
2019-03-03T01:59:53.103Z,1004.95
2019-03-03T02:00:53.099Z,1004.94
2019-03-03T02:01:53.089Z,1004.89
2019-03-03T02:02:53.080Z,1004.92
2019-03-03T02:03:53.075Z,1004.92
2019-03-03T02:04:53.066Z,1004.90
2019-03-03T02:05:53.055Z,1004.89
2019-03-03T02:06:53.048Z,1004.91
2019-03-03T02:07:53.040Z,1004.90
2019-03-03T02:08:53.031Z,1004.93
2019-03-03T02:09:53.026Z,1004.92
2019-03-03T02:10:53.019Z,1004.91
2019-03-03T02:11:53.011Z,1004.95
2019-03-03T02:12:53.002Z,1004.95
2019-03-03T02:13:52.990Z,1004.90
2019-03-03T02:14:52.984Z,1004.90
2019-03-03T02:15:52.975Z,1004.90
2019-03-03T02:16:52.969Z,1004.85
2019-03-03T02:17:52.961Z,1004.85
2019-03-03T02:18:52.960Z,1004.86
2019-03-03T02:19:52.945Z,1004.86
2019-03-03T02:20:52.935Z,1004.83
2019-03-03T02:21:52.931Z,1004.81
2019-03-03T02:22:52.919Z,1004.79
2019-03-03T02:23:52.910Z,1004.77
2019-03-03T02:24:52.902Z,1004.75
2019-03-03T02:25:52.894Z,1004.77
2019-03-03T02:26:52.885Z,1004.74
2019-03-03T02:27:52.878Z,1004.73
2019-03-03T02:28:52.872Z,1004.71
2019-03-03T02:29:52.865Z,1004.71
2019-03-03T02:30:52.862Z,1004.69
2019-03-03T02:31:52.849Z,1004.69
2019-03-03T02:32:52.838Z,1004.68
2019-03-03T02:33:52.833Z,1004.69
2019-03-03T02:34:52.824Z,1004.71
2019-03-03T02:35:52.815Z,1004.70
2019-03-03T02:36:52.814Z,1004.65
2019-03-03T02:37:52.807Z,1004.68
2019-03-03T02:38:52.787Z,1004.67
2019-03-03T02:39:52.781Z,1004.63
2019-03-03T02:40:52.776Z,1004.61
2019-03-03T02:41:52.770Z,1004.64
2019-03-03T02:42:52.759Z,1004.60
2019-03-03T02:43:52.750Z,1004.59
2019-03-03T02:44:52.743Z,1004.57
2019-03-03T02:45:52.738Z,1004.57
2019-03-03T02:46:52.734Z,1004.57
2019-03-03T02:47:52.720Z,1004.51
2019-03-03T02:48:52.712Z,1004.52
2019-03-03T02:49:52.710Z,1004.52
2019-03-03T02:50:52.758Z,1004.53
2019-03-03T02:51:52.686Z,1004.52
2019-03-03T02:52:52.678Z,1004.54
2019-03-03T02:53:52.673Z,1004.54
2019-03-03T02:54:52.665Z,1004.56
2019-03-03T02:55:52.664Z,1004.54
2019-03-03T02:56:52.650Z,1004.56
2019-03-03T02:57:52.639Z,1004.53
2019-03-03T02:58:52.632Z,1004.55
2019-03-03T02:59:52.623Z,1004.50
2019-03-03T03:00:52.615Z,1004.56
2019-03-03T03:01:52.606Z,1004.59
2019-03-03T03:02:52.598Z,1004.55
2019-03-03T03:03:52.591Z,1004.54
2019-03-03T03:04:52.594Z,1004.56
2019-03-03T03:05:52.572Z,1004.51
2019-03-03T03:06:52.565Z,1004.51
2019-03-03T03:07:52.577Z,1004.52
2019-03-03T03:08:52.551Z,1004.51
2019-03-03T03:09:52.545Z,1004.52
2019-03-03T03:10:52.532Z,1004.49
2019-03-03T03:11:52.536Z,1004.44
2019-03-03T03:12:52.518Z,1004.46
2019-03-03T03:13:52.511Z,1004.46
2019-03-03T03:14:52.502Z,1004.45
2019-03-03T03:15:52.495Z,1004.32
2019-03-03T03:16:52.494Z,1004.38
2019-03-03T03:17:52.488Z,1004.36
2019-03-03T03:18:52.471Z,1004.33
2019-03-03T03:19:52.463Z,1004.33
2019-03-03T03:20:52.456Z,1004.32
2019-03-03T03:21:52.446Z,1004.33
2019-03-03T03:22:52.440Z,1004.38
2019-03-03T03:23:52.430Z,1004.33
2019-03-03T03:24:52.429Z,1004.29
2019-03-03T03:25:52.415Z,1004.25
2019-03-03T03:26:52.408Z,1004.20
2019-03-03T03:27:52.402Z,1004.19
2019-03-03T03:28:52.391Z,1004.18
2019-03-03T03:29:52.384Z,1004.19
2019-03-03T03:30:52.375Z,1004.16
2019-03-03T03:31:52.369Z,1004.11
2019-03-03T03:32:52.361Z,1004.11
2019-03-03T03:33:52.354Z,1004.06
2019-03-03T03:34:52.444Z,1004.09
2019-03-03T03:35:52.335Z,1004.08
2019-03-03T03:36:52.327Z,1004.04
2019-03-03T03:37:52.319Z,1003.99
2019-03-03T03:38:52.312Z,1004.01
2019-03-03T03:39:52.305Z,1003.98
2019-03-03T03:40:52.295Z,1003.96
2019-03-03T03:41:52.295Z,1003.96
2019-03-03T03:42:52.282Z,1003.96
2019-03-03T03:43:52.271Z,1003.93
2019-03-03T03:44:52.265Z,1003.95
2019-03-03T03:45:52.258Z,1003.93
2019-03-03T03:46:52.249Z,1003.85
2019-03-03T03:47:52.244Z,1003.83
2019-03-03T03:48:52.232Z,1003.83
2019-03-03T03:49:52.223Z,1003.79
2019-03-03T03:50:52.218Z,1003.74
2019-03-03T03:51:54.986Z,1003.77
2019-03-03T03:52:52.205Z,1003.72
2019-03-03T03:53:52.200Z,1003.71
2019-03-03T03:54:52.188Z,1003.72
2019-03-03T03:55:52.181Z,1003.71
2019-03-03T03:56:52.173Z,1003.69
2019-03-03T03:57:52.165Z,1003.66
2019-03-03T03:58:52.155Z,1003.66
2019-03-03T03:59:52.169Z,1003.63
2019-03-03T04:00:52.138Z,1003.65
2019-03-03T04:01:52.131Z,1003.70
2019-03-03T04:02:52.125Z,1003.63
2019-03-03T04:03:52.118Z,1003.63
2019-03-03T04:04:52.114Z,1003.62
2019-03-03T04:05:52.100Z,1003.62
2019-03-03T04:06:52.092Z,1003.64
2019-03-03T04:07:52.084Z,1003.62
2019-03-03T04:08:52.075Z,1003.60
2019-03-03T04:09:52.076Z,1003.51
2019-03-03T04:10:52.062Z,1003.50
2019-03-03T04:11:52.051Z,1003.48
2019-03-03T04:12:52.041Z,1003.49
2019-03-03T04:13:52.043Z,1003.47
2019-03-03T04:14:52.030Z,1003.38
2019-03-03T04:15:52.026Z,1003.38
2019-03-03T04:16:52.013Z,1003.39
2019-03-03T04:17:52.011Z,1003.33
2019-03-03T04:18:51.997Z,1003.31
2019-03-03T04:19:51.989Z,1003.27
2019-03-03T04:20:51.987Z,1003.33
2019-03-03T04:21:51.975Z,1003.28
2019-03-03T04:22:51.984Z,1003.28
2019-03-03T04:23:51.958Z,1003.24
2019-03-03T04:24:51.950Z,1003.26
2019-03-03T04:25:51.944Z,1003.17
2019-03-03T04:26:51.950Z,1003.21
2019-03-03T04:27:51.924Z,1003.25
2019-03-03T04:28:51.918Z,1003.22
2019-03-03T04:29:51.911Z,1003.18
2019-03-03T04:30:51.903Z,1003.21
2019-03-03T04:31:51.897Z,1003.15
2019-03-03T04:32:51.887Z,1003.17
2019-03-03T04:33:51.880Z,1003.11
2019-03-03T04:34:51.870Z,1003.21
2019-03-03T04:35:51.869Z,1003.21
2019-03-03T04:36:51.858Z,1003.13
2019-03-03T04:37:51.848Z,1003.13
2019-03-03T04:38:51.839Z,1003.15
2019-03-03T04:39:51.833Z,1003.18
2019-03-03T04:40:51.822Z,1003.18
2019-03-03T04:41:51.817Z,1003.13
2019-03-03T04:42:51.810Z,1003.16
2019-03-03T04:43:51.799Z,1003.18
2019-03-03T04:44:51.795Z,1003.16
2019-03-03T04:45:51.783Z,1003.16
2019-03-03T04:46:51.777Z,1003.13
2019-03-03T04:47:51.767Z,1003.17
2019-03-03T04:48:51.763Z,1003.13
2019-03-03T04:49:51.754Z,1003.10
2019-03-03T04:50:51.751Z,1003.05
2019-03-03T04:51:51.735Z,1003.05
2019-03-03T04:52:51.730Z,1003.05
2019-03-03T04:53:51.720Z,1003.02
2019-03-03T04:54:51.710Z,1003.00
2019-03-03T04:55:51.706Z,1002.98
2019-03-03T04:56:51.699Z,1003.06
2019-03-03T04:57:51.689Z,1003.08
2019-03-03T04:58:51.680Z,1003.11
2019-03-03T04:59:51.673Z,1003.11
2019-03-03T05:00:51.671Z,1003.10
2019-03-03T05:01:51.660Z,1003.12
2019-03-03T05:02:51.649Z,1003.12
2019-03-03T05:03:51.641Z,1003.10
2019-03-03T05:04:51.636Z,1003.11
2019-03-03T05:05:51.630Z,1003.13
2019-03-03T05:06:51.621Z,1003.08
2019-03-03T05:07:51.612Z,1003.03
2019-03-03T05:08:51.606Z,1003.09
2019-03-03T05:09:51.601Z,1003.02
2019-03-03T05:10:51.588Z,1003.01
2019-03-03T05:11:51.583Z,1002.97
2019-03-03T05:12:51.575Z,1002.99
2019-03-03T05:13:51.565Z,1003.04
2019-03-03T05:14:51.559Z,1002.98
2019-03-03T05:15:51.554Z,1002.94
2019-03-03T05:16:51.546Z,1002.95
2019-03-03T05:17:51.537Z,1002.92
2019-03-03T05:18:51.525Z,1003.02
2019-03-03T05:19:51.525Z,1002.97
2019-03-03T05:20:51.511Z,1003.01
2019-03-03T05:21:51.508Z,1003.03
2019-03-03T05:22:51.503Z,1002.96
2019-03-03T05:23:51.494Z,1002.96
2019-03-03T05:24:51.485Z,1002.89
2019-03-03T05:25:51.474Z,1002.88
2019-03-03T05:26:51.469Z,1002.85
2019-03-03T05:27:51.462Z,1002.84
2019-03-03T05:28:51.454Z,1002.85
2019-03-03T05:29:51.444Z,1002.89
2019-03-03T05:30:51.442Z,1002.82
2019-03-03T05:31:51.429Z,1002.81
2019-03-03T05:32:51.423Z,1002.86
2019-03-03T05:33:51.418Z,1002.84
2019-03-03T05:34:51.407Z,1002.87
2019-03-03T05:35:51.400Z,1002.84
2019-03-03T05:36:51.391Z,1002.82
2019-03-03T05:37:51.388Z,1002.80
2019-03-03T05:38:51.378Z,1002.79
2019-03-03T05:39:51.371Z,1002.75
2019-03-03T05:40:51.368Z,1002.67
2019-03-03T05:41:51.358Z,1002.67
2019-03-03T05:42:51.353Z,1002.67
2019-03-03T05:43:51.341Z,1002.66
2019-03-03T05:44:51.333Z,1002.62
2019-03-03T05:45:51.326Z,1002.61
2019-03-03T05:46:51.319Z,1002.56
2019-03-03T05:47:51.311Z,1002.55
2019-03-03T05:48:51.301Z,1002.53
2019-03-03T05:49:51.298Z,1002.50
2019-03-03T05:50:51.287Z,1002.51
2019-03-03T05:51:51.280Z,1002.55
2019-03-03T05:52:51.277Z,1002.61
2019-03-03T05:53:51.272Z,1002.55
2019-03-03T05:54:51.258Z,1002.56
2019-03-03T05:55:51.252Z,1002.55
2019-03-03T05:56:51.246Z,1002.54
2019-03-03T05:57:51.242Z,1002.55
2019-03-03T05:58:51.228Z,1002.55
2019-03-03T05:59:51.221Z,1002.55
2019-03-03T06:00:51.215Z,1002.50
2019-03-03T06:01:51.206Z,1002.52
2019-03-03T06:02:51.202Z,1002.51
2019-03-03T06:03:51.193Z,1002.50
2019-03-03T06:04:51.191Z,1002.50
2019-03-03T06:05:51.178Z,1002.52
2019-03-03T06:06:51.171Z,1002.47
2019-03-03T06:07:51.166Z,1002.52
2019-03-03T06:08:51.154Z,1002.48
2019-03-03T06:09:51.149Z,1002.46
2019-03-03T06:10:51.138Z,1002.46
2019-03-03T06:11:51.134Z,1002.45
2019-03-03T06:12:51.129Z,1002.45
2019-03-03T06:13:51.120Z,1002.40
2019-03-03T06:14:51.111Z,1002.38
2019-03-03T06:15:51.107Z,1002.45
2019-03-03T06:16:51.098Z,1002.40
2019-03-03T06:17:51.093Z,1002.39
2019-03-03T06:18:51.082Z,1002.38
2019-03-03T06:19:51.080Z,1002.36
2019-03-03T06:20:51.069Z,1002.34
2019-03-03T06:21:51.062Z,1002.37
2019-03-03T06:22:51.052Z,1002.35
2019-03-03T06:23:51.048Z,1002.39
2019-03-03T06:24:51.041Z,1002.41
2019-03-03T06:25:51.033Z,1002.41
2019-03-03T06:26:51.029Z,1002.36
2019-03-03T06:27:51.019Z,1002.35
2019-03-03T06:28:51.009Z,1002.29
2019-03-03T06:29:51.002Z,1002.25
2019-03-03T06:30:51.000Z,1002.24
2019-03-03T06:31:50.989Z,1002.22
2019-03-03T06:32:50.981Z,1002.23
2019-03-03T06:33:50.974Z,1002.20
2019-03-03T06:34:50.980Z,1002.19
2019-03-03T06:35:52.774Z,1002.17
2019-03-03T06:36:50.953Z,1002.14
2019-03-03T06:37:50.944Z,1002.17
2019-03-03T06:38:50.938Z,1002.16
2019-03-03T06:39:50.932Z,1002.13
2019-03-03T06:40:50.926Z,1002.16
2019-03-03T06:41:50.916Z,1002.15
2019-03-03T06:42:50.927Z,1002.14
2019-03-03T06:43:50.909Z,1002.11
2019-03-03T06:44:50.897Z,1002.09
2019-03-03T06:45:50.887Z,1002.06
2019-03-03T06:46:50.885Z,1002.05
2019-03-03T06:47:50.874Z,1002.08
2019-03-03T06:48:50.870Z,1002.01
2019-03-03T06:49:50.861Z,1002.06
2019-03-03T06:50:52.863Z,1002.04
2019-03-03T06:51:50.847Z,1002.04
2019-03-03T06:52:50.846Z,1002.05
2019-03-03T06:53:50.835Z,1002.06
2019-03-03T06:54:50.831Z,1002.04
2019-03-03T06:55:50.819Z,1002.04
2019-03-03T06:56:50.811Z,1002.04
2019-03-03T06:57:50.810Z,1002.04
2019-03-03T06:58:50.800Z,1001.99
2019-03-03T06:59:50.792Z,1001.96
2019-03-03T07:00:50.785Z,1001.93
2019-03-03T07:01:50.781Z,1001.94
2019-03-03T07:02:50.768Z,1001.89
2019-03-03T07:03:50.763Z,1001.91
2019-03-03T07:04:50.756Z,1001.92
2019-03-03T07:05:50.749Z,1001.91
2019-03-03T07:06:50.744Z,1001.89
2019-03-03T07:07:50.737Z,1001.84
2019-03-03T07:08:50.729Z,1001.82
2019-03-03T07:09:50.723Z,1001.87
2019-03-03T07:10:50.713Z,1001.82
2019-03-03T07:11:50.708Z,1001.88
2019-03-03T07:12:50.700Z,1001.80
2019-03-03T07:13:50.695Z,1001.84
2019-03-03T07:14:50.686Z,1001.88
2019-03-03T07:15:50.681Z,1001.81
2019-03-03T07:16:50.676Z,1001.78
2019-03-03T07:17:50.668Z,1001.81
2019-03-03T07:18:50.659Z,1001.81
2019-03-03T07:19:50.651Z,1001.79
2019-03-03T07:20:50.652Z,1001.83
2019-03-03T07:21:50.645Z,1001.77
2019-03-03T07:22:50.631Z,1001.77
2019-03-03T07:23:50.624Z,1001.70
2019-03-03T07:24:50.619Z,1001.76
2019-03-03T07:25:50.610Z,1001.78
2019-03-03T07:26:50.605Z,1001.78
2019-03-03T07:27:50.597Z,1001.80
2019-03-03T07:28:50.595Z,1001.76
2019-03-03T07:29:50.590Z,1001.77
2019-03-03T07:30:50.580Z,1001.76
2019-03-03T07:31:50.573Z,1001.75
2019-03-03T07:32:50.569Z,1001.72
2019-03-03T07:33:50.557Z,1001.71
2019-03-03T07:34:50.553Z,1001.69
2019-03-03T07:35:50.548Z,1001.62
2019-03-03T07:36:50.543Z,1001.73
2019-03-03T07:37:50.533Z,1001.69
2019-03-03T07:38:50.526Z,1001.72
2019-03-03T07:39:50.517Z,1001.66
2019-03-03T07:40:50.512Z,1001.63
2019-03-03T07:41:50.508Z,1001.67
2019-03-03T07:42:50.501Z,1001.69
2019-03-03T07:43:50.492Z,1001.70
2019-03-03T07:44:50.487Z,1001.69
2019-03-03T07:45:50.483Z,1001.68
2019-03-03T07:46:50.474Z,1001.63
2019-03-03T07:47:50.467Z,1001.71
2019-03-03T07:48:50.463Z,1001.62
2019-03-03T07:49:50.453Z,1001.64
2019-03-03T07:50:50.446Z,1001.61
2019-03-03T07:51:50.439Z,1001.63
2019-03-03T07:52:50.435Z,1001.57
2019-03-03T07:53:50.428Z,1001.56
2019-03-03T07:54:50.421Z,1001.53
2019-03-03T07:55:50.418Z,1001.48
2019-03-03T07:56:50.411Z,1001.53
2019-03-03T07:57:50.402Z,1001.52
2019-03-03T07:58:50.395Z,1001.56
2019-03-03T07:59:50.395Z,1001.52
2019-03-03T08:00:50.383Z,1001.52
2019-03-03T08:01:50.378Z,1001.57
2019-03-03T08:02:50.370Z,1001.53
2019-03-03T08:03:50.369Z,1001.56
2019-03-03T08:04:50.362Z,1001.58
2019-03-03T08:05:50.349Z,1001.54
2019-03-03T08:06:50.343Z,1001.57
2019-03-03T08:07:50.342Z,1001.53
2019-03-03T08:08:50.333Z,1001.52
2019-03-03T08:09:50.328Z,1001.51
2019-03-03T08:10:50.320Z,1001.42
2019-03-03T08:11:50.314Z,1001.49
2019-03-03T08:12:50.313Z,1001.51
2019-03-03T08:13:50.310Z,1001.49
2019-03-03T08:14:50.301Z,1001.50
2019-03-03T08:15:50.287Z,1001.50
2019-03-03T08:16:50.285Z,1001.46
2019-03-03T08:17:50.280Z,1001.48
2019-03-03T08:18:50.279Z,1001.45
2019-03-03T08:19:50.270Z,1001.45
2019-03-03T08:20:50.265Z,1001.38
2019-03-03T08:21:50.256Z,1001.30
2019-03-03T08:22:50.254Z,1001.35
2019-03-03T08:23:50.257Z,1001.37
2019-03-03T08:24:51.392Z,1001.37
2019-03-03T08:25:50.238Z,1001.43
2019-03-03T08:26:50.225Z,1001.49
2019-03-03T08:27:50.220Z,1001.40
2019-03-03T08:28:50.221Z,1001.37
2019-03-03T08:29:50.218Z,1001.36
2019-03-03T08:30:50.201Z,1001.27
2019-03-03T08:31:50.198Z,1001.27
2019-03-03T08:32:50.188Z,1001.24
2019-03-03T08:33:50.186Z,1001.29
2019-03-03T08:34:50.179Z,1001.31
2019-03-03T08:35:50.171Z,1001.35
2019-03-03T08:36:50.177Z,1001.25
2019-03-03T08:37:50.162Z,1001.32
2019-03-03T08:38:50.180Z,1001.27
2019-03-03T08:39:50.152Z,1001.38
2019-03-03T08:40:50.146Z,1001.32
2019-03-03T08:41:50.141Z,1001.32
2019-03-03T08:42:50.133Z,1001.37
2019-03-03T08:43:50.127Z,1001.35
2019-03-03T08:44:50.128Z,1001.39
2019-03-03T08:45:50.120Z,1001.36
2019-03-03T08:46:50.113Z,1001.46
2019-03-03T08:47:53.179Z,1001.51
2019-03-03T08:48:50.095Z,1001.50
2019-03-03T08:49:50.097Z,1001.55
2019-03-03T08:50:50.087Z,1001.47
2019-03-03T08:51:50.085Z,1001.47
2019-03-03T08:52:50.079Z,1001.43
2019-03-03T08:53:50.076Z,1001.41
2019-03-03T08:54:50.069Z,1001.43
2019-03-03T08:55:50.063Z,1001.41
2019-03-03T08:56:50.057Z,1001.38
2019-03-03T08:57:50.050Z,1001.31
2019-03-03T08:58:50.044Z,1001.33
2019-03-03T08:59:50.040Z,1001.35
2019-03-03T09:00:50.038Z,1001.34
2019-03-03T09:01:50.027Z,1001.38
2019-03-03T09:02:50.024Z,1001.37
2019-03-03T09:03:50.016Z,1001.37
2019-03-03T09:04:50.011Z,1001.27
2019-03-03T09:05:50.006Z,1001.39
2019-03-03T09:06:50.004Z,1001.32
2019-03-03T09:07:50.002Z,1001.39
2019-03-03T09:08:49.990Z,1001.43
2019-03-03T09:09:49.990Z,1001.38
2019-03-03T09:10:49.983Z,1001.38
2019-03-03T09:11:49.974Z,1001.33
2019-03-03T09:12:49.968Z,1001.39
2019-03-03T09:13:49.965Z,1001.41
2019-03-03T09:14:49.959Z,1001.24
2019-03-03T09:15:49.950Z,1001.34
2019-03-03T09:16:49.952Z,1001.29
2019-03-03T09:17:49.941Z,1001.31
2019-03-03T09:18:49.938Z,1001.37
2019-03-03T09:19:49.935Z,1001.36
2019-03-03T09:20:49.927Z,1001.34
2019-03-03T09:21:49.921Z,1001.42
2019-03-03T09:22:49.920Z,1001.39
2019-03-03T09:23:49.910Z,1001.40
2019-03-03T09:24:49.904Z,1001.42
2019-03-03T09:25:49.901Z,1001.47
2019-03-03T09:26:49.896Z,1001.50
2019-03-03T09:27:49.888Z,1001.51
2019-03-03T09:28:49.884Z,1001.48
2019-03-03T09:29:49.880Z,1001.43
2019-03-03T09:30:49.873Z,1001.51
2019-03-03T09:31:49.873Z,1001.43
2019-03-03T09:32:49.861Z,1001.45
2019-03-03T09:33:49.858Z,1001.53
2019-03-03T09:34:49.851Z,1001.61
2019-03-03T09:35:49.848Z,1001.46
2019-03-03T09:36:49.843Z,1001.48
2019-03-03T09:37:49.840Z,1001.50
2019-03-03T09:38:49.832Z,1001.51
2019-03-03T09:39:49.828Z,1001.45
2019-03-03T09:40:49.825Z,1001.39
2019-03-03T09:41:49.817Z,1001.41
2019-03-03T09:42:49.811Z,1001.43
2019-03-03T09:43:49.804Z,1001.50
2019-03-03T09:44:49.809Z,1001.44
2019-03-03T09:45:49.796Z,1001.51
2019-03-03T09:46:49.792Z,1001.56
2019-03-03T09:47:49.787Z,1001.60
2019-03-03T09:48:49.782Z,1001.56
2019-03-03T09:49:49.781Z,1001.49
2019-03-03T09:50:49.771Z,1001.56
2019-03-03T09:51:49.766Z,1001.51
2019-03-03T09:52:49.761Z,1001.49
2019-03-03T09:53:49.759Z,1001.48
2019-03-03T09:54:50.446Z,1001.48
2019-03-03T09:55:49.745Z,1001.53
2019-03-03T09:56:49.742Z,1001.51
2019-03-03T09:57:49.738Z,1001.45
2019-03-03T09:58:49.733Z,1001.52
2019-03-03T09:59:49.726Z,1001.48
2019-03-03T10:00:49.721Z,1001.45
2019-03-03T10:01:49.717Z,1001.45
2019-03-03T10:02:49.713Z,1001.41
2019-03-03T10:03:49.709Z,1001.45
2019-03-03T10:04:51.432Z,1001.45
2019-03-03T10:05:49.698Z,1001.48
2019-03-03T10:06:50.456Z,1001.55
2019-03-03T10:07:49.691Z,1001.46
2019-03-03T10:08:49.683Z,1001.54
2019-03-03T10:09:49.676Z,1001.50
2019-03-03T10:10:50.397Z,1001.47
2019-03-03T10:11:49.665Z,1001.55
2019-03-03T10:12:49.663Z,1001.56
2019-03-03T10:13:49.801Z,1001.49
2019-03-03T10:14:49.650Z,1001.56
2019-03-03T10:15:49.652Z,1001.57
2019-03-03T10:16:49.648Z,1001.63
2019-03-03T10:17:49.635Z,1001.65
2019-03-03T10:18:49.634Z,1001.62
2019-03-03T10:19:49.873Z,1001.60
2019-03-03T10:20:49.621Z,1001.64
2019-03-03T10:21:49.618Z,1001.51
2019-03-03T10:22:49.612Z,1001.64
2019-03-03T10:23:49.607Z,1001.65
2019-03-03T10:24:49.605Z,1001.65
2019-03-03T10:25:49.597Z,1001.65
2019-03-03T10:26:49.595Z,1001.69
2019-03-03T10:27:49.587Z,1001.70
2019-03-03T10:28:49.583Z,1001.68
2019-03-03T10:29:49.579Z,1001.68
2019-03-03T10:30:49.572Z,1001.71
2019-03-03T10:31:49.570Z,1001.71
2019-03-03T10:32:49.563Z,1001.75
2019-03-03T10:33:49.558Z,1001.76
2019-03-03T10:34:49.554Z,1001.70
2019-03-03T10:35:49.549Z,1001.73
2019-03-03T10:36:49.542Z,1001.69
2019-03-03T10:37:49.539Z,1001.62
2019-03-03T10:38:49.534Z,1001.67
2019-03-03T10:39:49.532Z,1001.67
2019-03-03T10:40:49.522Z,1001.65
2019-03-03T10:41:49.521Z,1001.64
2019-03-03T10:42:49.511Z,1001.69
2019-03-03T10:43:49.506Z,1001.62
2019-03-03T10:44:49.506Z,1001.64
2019-03-03T10:45:49.500Z,1001.66
2019-03-03T10:46:49.496Z,1001.60
2019-03-03T10:47:49.495Z,1001.62
2019-03-03T10:48:49.487Z,1001.65
2019-03-03T10:49:49.621Z,1001.63
2019-03-03T10:50:49.474Z,1001.62
2019-03-03T10:51:49.469Z,1001.61
2019-03-03T10:52:49.464Z,1001.64
2019-03-03T10:53:49.464Z,1001.58
2019-03-03T10:54:49.457Z,1001.60
2019-03-03T10:55:49.455Z,1001.65
2019-03-03T10:56:49.448Z,1001.61
2019-03-03T10:57:49.441Z,1001.60
2019-03-03T10:58:49.437Z,1001.57
2019-03-03T10:59:54.916Z,1001.60
2019-03-03T11:00:49.432Z,1001.57
2019-03-03T11:01:49.422Z,1001.58
2019-03-03T11:02:49.417Z,1001.61
2019-03-03T11:03:49.415Z,1001.57
2019-03-03T11:04:49.407Z,1001.56
2019-03-03T11:05:49.403Z,1001.55
2019-03-03T11:06:49.399Z,1001.47
2019-03-03T11:07:49.392Z,1001.53
2019-03-03T11:08:49.389Z,1001.51
2019-03-03T11:09:49.385Z,1001.51
2019-03-03T11:10:57.342Z,1001.53
2019-03-03T11:11:49.377Z,1001.57
2019-03-03T11:12:49.374Z,1001.54
2019-03-03T11:13:49.394Z,1001.50
2019-03-03T11:14:49.359Z,1001.52
2019-03-03T11:15:49.376Z,1001.50
2019-03-03T11:16:49.350Z,1001.55
2019-03-03T11:17:49.352Z,1001.54
2019-03-03T11:18:56.034Z,1001.50
2019-03-03T11:19:49.379Z,1001.50
2019-03-03T11:20:49.332Z,1001.44
2019-03-03T11:21:49.328Z,1001.41
2019-03-03T11:22:49.322Z,1001.46
2019-03-03T11:23:49.317Z,1001.46
2019-03-03T11:24:49.312Z,1001.53
2019-03-03T11:25:49.311Z,1001.49
2019-03-03T11:26:49.305Z,1001.45
2019-03-03T11:27:49.306Z,1001.47
2019-03-03T11:28:49.299Z,1001.47
2019-03-03T11:29:49.296Z,1001.46
2019-03-03T11:30:49.291Z,1001.43
2019-03-03T11:31:49.287Z,1001.50
2019-03-03T11:32:49.281Z,1001.52
2019-03-03T11:33:49.272Z,1001.51
2019-03-03T11:34:49.271Z,1001.46
2019-03-03T11:35:49.265Z,1001.48
2019-03-03T11:36:49.260Z,1001.54
2019-03-03T11:37:49.253Z,1001.46
2019-03-03T11:38:49.516Z,1001.51
2019-03-03T11:39:49.247Z,1001.43
2019-03-03T11:40:49.243Z,1001.46
2019-03-03T11:41:49.236Z,1001.44
2019-03-03T11:42:49.229Z,1001.49
2019-03-03T11:43:49.225Z,1001.45
2019-03-03T11:44:49.222Z,1001.44
2019-03-03T11:45:49.219Z,1001.36
2019-03-03T11:46:49.213Z,1001.43
2019-03-03T11:47:49.209Z,1001.40
2019-03-03T11:48:49.205Z,1001.40
2019-03-03T11:49:49.199Z,1001.33
2019-03-03T11:50:49.197Z,1001.41
2019-03-03T11:51:49.194Z,1001.35
2019-03-03T11:52:49.186Z,1001.41
2019-03-03T11:53:49.183Z,1001.34
2019-03-03T11:54:49.174Z,1001.36
2019-03-03T11:55:49.175Z,1001.34
2019-03-03T11:56:49.169Z,1001.34
2019-03-03T11:57:49.167Z,1001.38
2019-03-03T11:58:49.161Z,1001.31
2019-03-03T11:59:49.155Z,1001.26
2019-03-03T12:00:49.150Z,1001.32
2019-03-03T12:01:49.143Z,1001.33
2019-03-03T12:02:53.929Z,1001.34
2019-03-03T12:03:49.136Z,1001.27
2019-03-03T12:04:49.129Z,1001.28
2019-03-03T12:05:49.128Z,1001.32